To NAV CANADA Home Page Login to a new session Search on AWWS site Feedback and Comments Disclaimer Vers la page française équivalente Tips FAQ What's new on the site To the Forecasts and Observations / NOTAM section To "File a Flight Plan" website Publications and other links Update of the User's profile FIC Telephone Numbers My Weather Data Folder Route Weather Data Regional Weather Data Local Weather Data To the Forecasts and Observations / NOTAM section
Request Generated 03/28/2017 at 02:23:43 UTC . Weather information available at that time is displayed.

METAR/TAF

NATASHQUAN/QC    (show WxCam)

METAR CYNA 280200Z AUTO 29003KT 9SM CLR M10/M13 A3030 RMK SLP263=
METAR CYNA 280100Z AUTO 33004KT 9SM FEW150 M09/M12 A3031 RMK SLP266=
METAR CYNA 280000Z AUTO 32006KT 9SM FEW150 M07/M10 A3032 RMK SLP268=

TAF CYNA 280138Z 2802/2814 VRB03KT P6SM BKN130
BECMG 2804/2806 04008KT
RMK FCST BASED ON AUTO OBS. NXT FCST BY 280800Z=
Your time UTC time
Weather data provided by Environment Canada and NAV CANADA